createdAt,value
2022-08-11T00:00:36.546Z,14.98
2022-08-11T00:03:08.136Z,15.05
2022-08-11T00:05:55.872Z,14.99
2022-08-11T00:08:28.144Z,14.96
2022-08-11T00:10:57.709Z,15.01
2022-08-11T00:13:35.840Z,14.96
2022-08-11T00:16:04.540Z,15.10
2022-08-11T00:18:42.942Z,14.99
2022-08-11T00:21:10.992Z,14.89
2022-08-11T00:23:46.363Z,14.81
2022-08-11T00:26:14.500Z,14.74
2022-08-11T00:28:41.838Z,14.70
2022-08-11T00:31:10.084Z,14.64
2022-08-11T00:33:44.905Z,14.58
2022-08-11T00:36:15.576Z,14.58
2022-08-11T00:38:44.022Z,14.64
2022-08-11T00:41:28.874Z,14.56
2022-08-11T00:44:13.050Z,14.62
2022-08-11T00:46:53.615Z,14.58
2022-08-11T00:49:39.075Z,14.53
2022-08-11T00:52:22.253Z,14.51
2022-08-11T00:55:00.843Z,14.37
2022-08-11T00:57:38.524Z,14.32
2022-08-11T01:00:17.309Z,14.41
2022-08-11T01:03:05.191Z,14.50
2022-08-11T01:05:51.231Z,14.46
2022-08-11T01:08:27.131Z,14.49
2022-08-11T01:11:01.682Z,14.50
2022-08-11T01:14:10.319Z,14.39
2022-08-11T01:17:05.158Z,14.31
2022-08-11T01:20:45.933Z,14.27
2022-08-11T01:23:09.510Z,14.16
2022-08-11T01:26:05.533Z,14.09
2022-08-11T01:28:41.146Z,13.97
2022-08-11T01:31:35.709Z,14.02
2022-08-11T01:34:24.954Z,13.98
2022-08-11T01:37:26.205Z,13.90
2022-08-11T01:40:26.697Z,13.91
2022-08-11T01:43:34.233Z,13.86
2022-08-11T01:46:12.787Z,13.77
2022-08-11T01:48:57.699Z,13.75
2022-08-11T01:51:41.950Z,13.79
2022-08-11T01:54:39.093Z,13.79
2022-08-11T01:57:44.507Z,13.84
2022-08-11T02:00:15.691Z,13.78
2022-08-11T02:02:54.052Z,13.72
2022-08-11T02:05:20.676Z,13.59
2022-08-11T02:08:03.388Z,13.61
2022-08-11T02:11:08.589Z,13.47
2022-08-11T02:13:47.555Z,13.44
2022-08-11T02:16:48.294Z,13.45
2022-08-11T02:19:36.335Z,13.68
2022-08-11T02:22:34.876Z,13.62
2022-08-11T02:25:06.567Z,13.50
2022-08-11T02:27:45.930Z,13.48
2022-08-11T02:30:15.490Z,13.49
2022-08-11T02:33:12.382Z,13.53
2022-08-11T02:35:51.735Z,13.63
2022-08-11T02:38:30.248Z,13.66
2022-08-11T02:41:31.359Z,13.71
2022-08-11T02:44:34.742Z,13.62
2022-08-11T02:47:32.474Z,13.53
2022-08-11T02:50:07.130Z,13.48
2022-08-11T02:52:59.095Z,13.59
2022-08-11T02:55:58.682Z,13.54
2022-08-11T02:58:35.473Z,13.41
2022-08-11T03:01:15.773Z,13.20
2022-08-11T03:03:53.895Z,13.15
2022-08-11T03:06:23.389Z,13.00
2022-08-11T03:09:11.689Z,12.87
2022-08-11T03:12:11.937Z,12.88
2022-08-11T03:15:03.078Z,12.87
2022-08-11T03:17:38.195Z,12.90
2022-08-11T03:20:26.154Z,12.90
2022-08-11T03:23:19.373Z,12.91
2022-08-11T03:25:49.710Z,12.80
2022-08-11T03:28:19.191Z,12.74
2022-08-11T03:30:54.843Z,12.75
2022-08-11T03:33:51.259Z,12.64
2022-08-11T03:37:14.832Z,12.56
2022-08-11T03:40:09.133Z,12.62
2022-08-11T03:42:49.251Z,12.61
2022-08-11T03:45:29.498Z,12.68
2022-08-11T03:48:21.810Z,12.60
2022-08-11T03:50:51.906Z,12.62
2022-08-11T03:53:46.084Z,12.65
2022-08-11T03:56:31.273Z,12.67
2022-08-11T03:59:21.030Z,12.67
2022-08-11T04:02:29.404Z,12.68
2022-08-11T04:05:14.025Z,12.68
2022-08-11T04:08:12.977Z,12.71
2022-08-11T04:10:51.653Z,12.66
2022-08-11T04:13:33.194Z,12.69
2022-08-11T04:16:38.337Z,12.68
2022-08-11T04:19:36.664Z,12.65
2022-08-11T04:22:23.561Z,12.61
2022-08-11T04:25:20.576Z,12.65
2022-08-11T04:27:54.486Z,12.64
2022-08-11T04:30:57.853Z,12.69
2022-08-11T04:33:52.055Z,12.79
2022-08-11T04:37:11.595Z,12.82
2022-08-11T04:40:03.816Z,12.86
2022-08-11T04:43:07.740Z,12.92
2022-08-11T04:45:55.135Z,12.97
2022-08-11T04:49:08.419Z,12.93
2022-08-11T04:52:21.596Z,13.02
2022-08-11T04:55:40.651Z,13.08
2022-08-11T04:58:44.499Z,12.98
2022-08-11T05:01:41.570Z,12.99
2022-08-11T05:04:33.345Z,13.04
2022-08-11T05:07:14.483Z,13.11
2022-08-11T05:09:54.649Z,13.20
2022-08-11T05:12:40.336Z,13.23
2022-08-11T05:15:42.716Z,13.34
2022-08-11T05:18:39.258Z,13.45
2022-08-11T05:21:27.704Z,13.54
2022-08-11T05:24:17.611Z,13.60
2022-08-11T05:27:13.358Z,13.66
2022-08-11T05:30:05.264Z,13.75
2022-08-11T05:33:02.326Z,13.82
2022-08-11T05:36:01.691Z,13.96
2022-08-11T05:38:51.263Z,14.02
2022-08-11T05:41:38.887Z,14.23
2022-08-11T05:44:24.019Z,14.34
2022-08-11T05:47:09.714Z,14.55
2022-08-11T05:49:57.765Z,14.74
2022-08-11T05:52:49.121Z,15.00
2022-08-11T05:56:01.952Z,15.30
2022-08-11T05:58:35.838Z,15.62
2022-08-11T06:01:07.528Z,15.91
2022-08-11T06:03:58.297Z,16.24
2022-08-11T06:06:27.422Z,16.56
2022-08-11T06:08:56.448Z,16.90
2022-08-11T06:11:42.846Z,17.14
2022-08-11T06:14:12.669Z,17.48
2022-08-11T06:16:41.853Z,17.77
2022-08-11T06:19:09.488Z,18.04
2022-08-11T06:21:36.307Z,18.29
2022-08-11T06:24:05.375Z,18.54
2022-08-11T06:26:40.682Z,18.72
2022-08-11T06:29:18.846Z,19.00
2022-08-11T06:32:01.284Z,19.27
2022-08-11T06:34:51.050Z,19.54
2022-08-11T06:37:38.603Z,19.76
2022-08-11T06:40:09.852Z,19.96
2022-08-11T06:42:55.089Z,20.13
2022-08-11T06:45:40.085Z,20.43
2022-08-11T06:48:10.154Z,20.60
2022-08-11T06:50:55.200Z,20.76
2022-08-11T06:53:22.155Z,20.93
2022-08-11T06:56:08.282Z,21.23
2022-08-11T06:58:56.451Z,21.37
2022-08-11T07:01:47.676Z,21.47
2022-08-11T07:04:22.988Z,21.80
2022-08-11T07:07:26.238Z,22.03
2022-08-11T07:10:26.908Z,22.29
2022-08-11T07:13:39.375Z,22.42
2022-08-11T07:16:11.368Z,22.82
2022-08-11T07:18:59.680Z,22.84
2022-08-11T07:22:03.045Z,23.03
2022-08-11T07:25:14.318Z,23.43
2022-08-11T07:28:05.547Z,23.66
2022-08-11T07:30:32.777Z,23.82
2022-08-11T07:33:01.193Z,23.96
2022-08-11T07:35:42.238Z,24.22
2022-08-11T07:38:15.585Z,24.35
2022-08-11T07:40:46.218Z,24.50
2022-08-11T07:43:13.334Z,24.22
2022-08-11T07:46:02.577Z,24.25
2022-08-11T07:48:48.442Z,24.50
2022-08-11T07:51:40.260Z,24.66
2022-08-11T07:54:15.332Z,24.83
2022-08-11T07:57:07.254Z,24.91
2022-08-11T07:59:59.896Z,25.00
2022-08-11T08:02:50.095Z,25.12
2022-08-11T08:05:36.140Z,25.06
2022-08-11T08:08:21.453Z,25.02
2022-08-11T08:11:06.692Z,25.02
2022-08-11T08:13:52.993Z,25.16
2022-08-11T08:16:39.174Z,25.22
2022-08-11T08:19:05.830Z,25.02
2022-08-11T08:21:32.457Z,24.96
2022-08-11T08:23:59.074Z,25.35
2022-08-11T08:26:51.448Z,25.46
2022-08-11T08:29:38.624Z,25.58
2022-08-11T08:32:05.516Z,25.26
2022-08-11T08:34:33.580Z,25.32
2022-08-11T08:37:01.596Z,25.64
2022-08-11T08:39:28.355Z,25.48
2022-08-11T08:41:57.392Z,25.40
2022-08-11T08:44:42.223Z,25.66
2022-08-11T08:47:14.841Z,25.81
2022-08-11T08:50:05.758Z,26.19
2022-08-11T08:52:39.145Z,26.39
2022-08-11T08:55:08.088Z,26.75
2022-08-11T08:57:39.122Z,26.66
2022-08-11T09:00:12.586Z,26.20
2022-08-11T09:02:41.748Z,26.44
2022-08-11T09:05:10.153Z,26.54
2022-08-11T09:07:39.648Z,26.79
2022-08-11T09:10:08.641Z,26.92
2022-08-11T09:12:36.280Z,26.89
2022-08-11T09:15:14.132Z,26.29
2022-08-11T09:17:48.337Z,26.08
2022-08-11T09:20:23.875Z,26.15
2022-08-11T09:26:20.995Z,27.03
2022-08-11T09:28:49.725Z,27.07
2022-08-11T09:31:16.764Z,27.05
2022-08-11T09:33:43.982Z,27.29
2022-08-11T09:36:31.367Z,27.22
2022-08-11T09:39:17.307Z,26.94
2022-08-11T09:42:01.322Z,27.06
2022-08-11T09:44:48.709Z,27.19
2022-08-11T09:47:31.760Z,27.53
2022-08-11T09:50:01.324Z,28.06
2022-08-11T09:52:30.001Z,28.60
2022-08-11T09:54:56.869Z,29.29
2022-08-11T09:57:42.786Z,29.99
2022-08-11T10:00:13.385Z,31.27
2022-08-11T10:02:46.264Z,30.89
2022-08-11T10:05:33.891Z,30.85
2022-08-11T10:08:01.533Z,31.93
2022-08-11T10:10:28.519Z,33.12
2022-08-11T10:14:31.583Z,32.68
2022-08-11T10:15:59.790Z,33.14
2022-08-11T10:18:42.265Z,32.04
2022-08-11T10:21:15.357Z,31.94
2022-08-11T10:24:05.569Z,31.53
2022-08-11T10:26:51.698Z,33.83
2022-08-11T10:29:49.685Z,35.32
2022-08-11T10:32:58.776Z,36.56
2022-08-11T10:35:31.052Z,37.48
2022-08-11T10:38:07.517Z,37.74
2022-08-11T10:40:37.835Z,38.58
2022-08-11T10:43:07.286Z,38.52
2022-08-11T10:45:54.626Z,36.53
2022-08-11T10:48:22.319Z,36.53
2022-08-11T10:51:08.671Z,36.80
2022-08-11T10:53:55.894Z,37.55
2022-08-11T10:56:41.528Z,37.37
2022-08-11T10:59:09.038Z,38.26
2022-08-11T11:01:39.226Z,39.31
2022-08-11T11:04:12.029Z,39.55
2022-08-11T11:06:52.301Z,36.84
2022-08-11T11:09:43.973Z,38.43
2022-08-11T11:12:37.962Z,36.83
2022-08-11T11:15:24.302Z,37.44
2022-08-11T11:18:11.794Z,38.80
2022-08-11T11:20:54.043Z,40.21
2022-08-11T11:23:54.839Z,41.25
2022-08-11T11:26:50.430Z,41.59
2022-08-11T11:30:10.597Z,40.74
2022-08-11T11:32:54.855Z,42.70
2022-08-11T11:35:39.297Z,44.20
2022-08-11T11:38:13.869Z,44.52
2022-08-11T11:40:41.622Z,45.32
2022-08-11T11:43:08.383Z,44.37
2022-08-11T11:45:35.387Z,45.13
2022-08-11T11:48:02.253Z,43.17
2022-08-11T11:50:33.107Z,43.30
2022-08-11T11:53:01.514Z,42.39
2022-08-11T11:55:28.295Z,42.55
2022-08-11T11:58:15.997Z,43.53
2022-08-11T12:01:04.526Z,44.75
2022-08-11T12:03:31.471Z,42.94
2022-08-11T12:05:58.678Z,43.22
2022-08-11T12:08:27.781Z,43.78
2022-08-11T12:11:19.304Z,42.72
2022-08-11T12:13:47.802Z,43.34
2022-08-11T12:16:34.149Z,43.98
2022-08-11T12:19:04.308Z,44.98
2022-08-11T12:21:30.968Z,45.34
2022-08-11T12:24:18.142Z,45.22
2022-08-11T12:27:14.860Z,41.90
2022-08-11T12:29:35.404Z,43.48
2022-08-11T12:32:02.317Z,41.98
2022-08-11T12:34:31.402Z,42.10
2022-08-11T12:37:00.139Z,44.39
2022-08-11T12:40:16.342Z,44.70
2022-08-11T12:42:58.396Z,46.44
2022-08-11T12:45:29.639Z,48.75
2022-08-11T12:48:57.512Z,46.45
2022-08-11T12:52:00.760Z,45.61
2022-08-11T12:54:32.943Z,46.51
2022-08-11T12:57:36.180Z,48.37
2022-08-11T13:00:24.661Z,49.22
2022-08-11T13:03:10.321Z,48.65
2022-08-11T13:05:44.824Z,46.67
2022-08-11T13:08:15.070Z,49.03
2022-08-11T13:11:01.142Z,50.86
2022-08-11T13:13:52.829Z,48.23
2022-08-11T13:16:15.175Z,49.19
2022-08-11T13:18:42.976Z,51.57
2022-08-11T13:21:20.200Z,52.66
2022-08-11T13:24:00.665Z,50.61
2022-08-11T13:26:47.226Z,46.79
2022-08-11T13:29:22.190Z,47.22
2022-08-11T13:31:49.044Z,47.07
2022-08-11T13:34:19.760Z,44.32
2022-08-11T13:36:49.076Z,39.96
2022-08-11T13:39:16.404Z,37.27
2022-08-11T13:41:44.061Z,36.15
2022-08-11T13:44:15.632Z,35.50
2022-08-11T13:46:45.384Z,34.82
2022-08-11T13:49:16.165Z,34.47
2022-08-11T13:51:43.722Z,33.93
2022-08-11T13:54:12.808Z,33.29
2022-08-11T13:56:42.929Z,32.30
2022-08-11T13:59:10.381Z,32.10
2022-08-11T14:02:22.405Z,31.99
2022-08-11T14:04:51.883Z,31.96
2022-08-11T14:07:22.293Z,31.73
2022-08-11T14:09:55.596Z,31.16
2022-08-11T14:12:44.378Z,30.92
2022-08-11T14:15:19.961Z,30.88
2022-08-11T14:17:58.095Z,30.98
2022-08-11T14:20:39.248Z,30.93
2022-08-11T14:23:06.963Z,30.70
2022-08-11T14:26:00.817Z,30.70
2022-08-11T14:28:31.664Z,30.75
2022-08-11T14:31:02.063Z,30.57
2022-08-11T14:33:58.745Z,30.10
2022-08-11T14:36:17.656Z,29.99
2022-08-11T14:38:44.501Z,30.00
2022-08-11T14:41:29.678Z,30.14
2022-08-11T14:44:15.948Z,30.12
2022-08-11T14:47:02.257Z,30.06
2022-08-11T14:49:29.585Z,30.01
2022-08-11T14:51:57.784Z,30.01
2022-08-11T14:54:45.053Z,29.88
2022-08-11T14:57:11.640Z,29.30
2022-08-11T14:59:38.333Z,28.98
2022-08-11T15:02:24.514Z,29.11
2022-08-11T15:04:51.517Z,29.19
2022-08-11T15:07:18.944Z,29.33
2022-08-11T15:10:11.566Z,29.57
2022-08-11T15:12:34.015Z,29.59
2022-08-11T15:15:24.869Z,29.44
2022-08-11T15:17:56.973Z,29.38
2022-08-11T15:20:43.095Z,29.31
2022-08-11T15:23:28.917Z,29.27
2022-08-11T15:25:58.600Z,29.19
2022-08-11T15:28:46.364Z,29.16
2022-08-11T15:31:29.101Z,29.03
2022-08-11T15:34:18.239Z,29.05
2022-08-11T15:37:05.932Z,29.22
2022-08-11T15:40:06.425Z,29.46
2022-08-11T15:42:51.941Z,29.67
2022-08-11T15:45:45.627Z,29.67
2022-08-11T15:48:15.308Z,29.46
2022-08-11T15:50:46.539Z,29.21
2022-08-11T15:53:42.594Z,29.08
2022-08-11T15:56:11.080Z,28.93
2022-08-11T15:59:13.726Z,28.95
2022-08-11T16:02:10.517Z,28.88
2022-08-11T16:04:38.489Z,28.90
2022-08-11T16:07:11.734Z,28.93
2022-08-11T16:09:47.618Z,28.84
2022-08-11T16:12:26.112Z,28.90
2022-08-11T16:15:13.636Z,28.90
2022-08-11T16:17:50.687Z,28.81
2022-08-11T16:20:21.952Z,28.70
2022-08-11T16:23:00.481Z,28.65
2022-08-11T16:26:30.291Z,28.88
2022-08-11T16:28:16.995Z,28.53
2022-08-11T16:30:46.357Z,28.33
2022-08-11T16:33:48.953Z,28.22
2022-08-11T16:36:18.967Z,28.09
2022-08-11T16:38:46.385Z,27.91
2022-08-11T16:41:15.268Z,27.89
2022-08-11T16:44:08.037Z,27.84
2022-08-11T16:46:54.871Z,27.81
2022-08-11T16:49:25.105Z,28.01
2022-08-11T16:51:52.103Z,27.89
2022-08-11T16:54:19.636Z,27.73
2022-08-11T16:56:50.788Z,27.59
2022-08-11T16:59:21.006Z,27.45
2022-08-11T17:01:54.561Z,27.39
2022-08-11T17:04:39.686Z,27.33
2022-08-11T17:07:41.594Z,27.32
2022-08-11T17:10:52.794Z,27.20
2022-08-11T17:13:22.875Z,27.08
2022-08-11T17:16:10.185Z,27.03
2022-08-11T17:18:47.844Z,26.97
2022-08-11T17:21:22.090Z,26.91
2022-08-11T17:23:56.166Z,26.82
2022-08-11T17:26:27.377Z,26.90
2022-08-11T17:28:58.142Z,26.78
2022-08-11T17:31:45.005Z,26.68
2022-08-11T17:34:30.719Z,26.58
2022-08-11T17:36:57.720Z,26.47
2022-08-11T17:39:28.243Z,26.41
2022-08-11T17:42:13.922Z,26.34
2022-08-11T17:45:00.112Z,26.17
2022-08-11T17:47:45.805Z,26.05
2022-08-11T17:50:16.667Z,26.06
2022-08-11T17:53:04.586Z,25.95
2022-08-11T17:55:53.373Z,25.83
2022-08-11T17:58:39.624Z,25.76
2022-08-11T18:01:09.690Z,25.66
2022-08-11T18:03:39.716Z,25.57
2022-08-11T18:06:12.482Z,25.52
2022-08-11T18:09:01.628Z,25.58
2022-08-11T18:12:06.540Z,25.44
2022-08-11T18:14:56.295Z,25.33
2022-08-11T18:17:41.650Z,25.22
2022-08-11T18:20:27.224Z,25.10
2022-08-11T18:23:13.564Z,25.10
2022-08-11T18:26:01.345Z,24.96
2022-08-11T18:28:51.571Z,24.84
2022-08-11T18:31:37.059Z,24.70
2022-08-11T18:34:24.101Z,24.67
2022-08-11T18:37:26.025Z,24.49
2022-08-11T18:40:23.106Z,24.24
2022-08-11T18:43:08.843Z,24.03
2022-08-11T18:46:06.511Z,23.77
2022-08-11T18:48:55.706Z,23.54
2022-08-11T18:51:43.057Z,23.32
2022-08-11T18:54:29.340Z,23.09
2022-08-11T18:57:22.476Z,22.92
2022-08-11T19:00:09.220Z,22.72
2022-08-11T19:02:55.858Z,22.47
2022-08-11T19:06:32.422Z,22.30
2022-08-11T19:08:56.509Z,22.16
2022-08-11T19:11:43.706Z,22.08
2022-08-11T19:14:32.520Z,21.97
2022-08-11T19:17:44.683Z,21.84
2022-08-11T19:20:26.875Z,21.61
2022-08-11T19:23:13.466Z,21.50
2022-08-11T19:25:59.088Z,21.42
2022-08-11T19:28:44.819Z,21.27
2022-08-11T19:31:30.258Z,21.18
2022-08-11T19:34:15.998Z,21.06
2022-08-11T19:37:01.662Z,20.92
2022-08-11T19:39:47.365Z,20.86
2022-08-11T19:42:33.811Z,20.77
2022-08-11T19:45:19.891Z,20.69
2022-08-11T19:48:30.604Z,20.53
2022-08-11T19:51:12.306Z,20.40
2022-08-11T19:53:57.958Z,20.29
2022-08-11T19:56:43.557Z,20.25
2022-08-11T19:59:29.170Z,20.19
2022-08-11T20:02:14.826Z,20.06
2022-08-11T20:05:01.370Z,19.91
2022-08-11T20:07:47.567Z,19.79
2022-08-11T20:10:36.137Z,19.69
2022-08-11T20:13:22.356Z,19.64
2022-08-11T20:16:12.595Z,19.52
2022-08-11T20:18:58.226Z,19.41
2022-08-11T20:21:44.252Z,19.44
2022-08-11T20:24:29.906Z,19.37
2022-08-11T20:27:24.060Z,19.29
2022-08-11T20:30:09.856Z,19.22
2022-08-11T20:32:56.036Z,19.18
2022-08-11T20:35:42.390Z,19.16
2022-08-11T20:38:27.855Z,19.11
2022-08-11T20:41:16.299Z,19.01
2022-08-11T20:44:07.795Z,18.91
2022-08-11T20:46:58.303Z,18.80
2022-08-11T20:49:53.579Z,18.79
2022-08-11T20:52:47.497Z,18.73
2022-08-11T21:01:45.935Z,18.50
2022-08-11T21:04:32.544Z,18.39
2022-08-11T21:07:28.749Z,18.37
2022-08-11T21:10:22.949Z,18.19
2022-08-11T21:13:26.412Z,18.09
2022-08-11T21:16:26.342Z,18.07
2022-08-11T21:20:01.819Z,18.03
2022-08-11T21:22:58.724Z,18.11
2022-08-11T21:25:48.211Z,18.18
2022-08-11T21:28:37.501Z,18.23
2022-08-11T21:31:24.668Z,18.21
2022-08-11T21:34:09.883Z,18.06
2022-08-11T21:36:54.970Z,17.93
2022-08-11T21:39:41.324Z,17.88
2022-08-11T21:42:27.500Z,17.86
2022-08-11T21:45:13.280Z,17.82
2022-08-11T21:48:00.985Z,17.77
2022-08-11T21:50:46.542Z,17.74
2022-08-11T21:53:32.348Z,17.73
2022-08-11T21:56:17.764Z,17.70
2022-08-11T21:59:06.884Z,17.69
2022-08-11T22:01:52.458Z,17.66
2022-08-11T22:04:38.176Z,17.55
2022-08-11T22:07:23.847Z,17.57
2022-08-11T22:10:40.783Z,17.45
2022-08-11T22:13:13.994Z,17.24
2022-08-11T22:15:59.241Z,17.16
2022-08-11T22:18:44.513Z,17.14
2022-08-11T22:22:01.186Z,17.18
2022-08-11T22:24:36.271Z,17.10
2022-08-11T22:27:22.637Z,16.99
2022-08-11T22:30:07.745Z,17.00
2022-08-11T22:32:54.629Z,17.03
2022-08-11T22:35:41.336Z,16.91
2022-08-11T22:38:26.959Z,16.84
2022-08-11T22:41:12.594Z,16.73
2022-08-11T22:43:57.676Z,16.83
2022-08-11T22:46:43.489Z,16.86
2022-08-11T22:49:30.714Z,16.83
2022-08-11T22:52:37.493Z,16.81
2022-08-11T22:55:23.017Z,16.69
2022-08-11T22:58:09.683Z,16.57
2022-08-11T23:00:55.738Z,16.51
2022-08-11T23:03:41.803Z,16.51
2022-08-11T23:06:27.114Z,16.42
2022-08-11T23:09:12.353Z,16.38
2022-08-11T23:12:07.305Z,16.25
2022-08-11T23:14:56.160Z,16.23
2022-08-11T23:17:41.625Z,16.27
2022-08-11T23:20:34.189Z,16.27
2022-08-11T23:23:29.227Z,16.29
2022-08-11T23:26:14.806Z,16.19
2022-08-11T23:29:04.969Z,16.16
2022-08-11T23:31:52.942Z,16.00
2022-08-11T23:35:04.737Z,15.90
2022-08-11T23:37:49.167Z,15.90
2022-08-11T23:40:34.419Z,15.80
2022-08-11T23:43:19.456Z,15.68
2022-08-11T23:46:04.726Z,15.58
2022-08-11T23:48:50.819Z,15.62
2022-08-11T23:51:40.452Z,15.63
2022-08-11T23:54:27.153Z,15.64
2022-08-11T23:57:13.406Z,15.63
2022-08-11T23:59:58.460Z,15.62
